Time;durP1;ratioP1;P1;durP2;ratioP2;P2;SDS_P1;SDS_P2;PMS_P1;PMS_P2;Temp;Humidity;BMP_temperature;BMP_pressure;BME280_temperature;BME280_humidity;BME280_pressure;Samples;Min_cycle;Max_cycle;Signal;HPM_P1;HPM_P2
2022/08/02 13:32:08;;;;;;;9.20;2.08;;;24.20;73.80;23.60;100709;;;;568087;250;35461;-84
2022/08/02 13:34:36;;;;;;;9.07;2.00;;;24.10;73.90;23.50;100698;;;;565456;250;24121;-85
2022/08/02 13:37:03;;;;;;;10.60;1.80;;;24.00;73.10;23.20;100708;;;;564261;251;24169;-84
2022/08/02 13:39:35;;;;;;;5.93;2.23;;;23.90;73.90;23.20;100705;;;;565413;251;25238;-84
2022/08/02 13:41:59;;;;;;;6.27;1.80;;;23.70;74.20;23.10;100696;;;;563908;251;24239;-84
2022/08/02 13:44:27;;;;;;;8.80;1.90;;;23.70;74.10;23.00;100693;;;;565325;250;24135;-83
2022/08/02 13:46:55;;;;;;;6.43;2.27;;;23.60;75.20;22.90;100700;;;;573332;250;24122;-85
2022/08/02 13:49:23;;;;;;;17.10;2.20;;;23.50;75.20;22.70;100690;;;;564964;251;24119;-85
2022/08/02 13:51:51;;;;;;;4.90;1.63;;;23.30;75.80;22.60;100690;;;;565183;251;24221;-85
2022/08/02 13:54:19;;;;;;;7.00;1.67;;;23.10;75.20;22.50;100696;;;;553093;259;24144;-84
2022/08/02 13:56:47;;;;;;;18.50;2.83;;;22.90;76.40;22.30;100687;;;;554318;255;23151;-87
2022/08/02 13:59:15;;;;;;;14.83;2.13;;;22.90;76.30;22.20;100689;;;;565043;251;24093;-84
2022/08/02 14:01:45;;;;;;;23.10;4.87;;;22.80;78.30;22.10;100683;;;;573573;250;24103;-85
2022/08/02 14:04:12;;;;;;;6.23;1.67;;;22.70;79.70;22.10;100682;;;;562664;251;24090;-86
2022/08/02 14:06:44;;;;;;;11.47;2.00;;;22.50;80.60;22.00;100669;;;;563019;251;24158;-85
2022/08/02 14:09:10;;;;;;;4.90;2.03;;;22.40;81.00;21.90;100682;;;;563786;251;24205;-84
2022/08/02 14:11:38;;;;;;;15.00;2.67;;;22.40;80.90;21.80;100682;;;;573563;250;24145;-85
2022/08/02 14:14:09;;;;;;;12.53;1.93;;;22.30;81.50;21.60;100679;;;;563358;251;24093;-84
2022/08/02 14:16:34;;;;;;;8.87;1.43;;;22.20;82.40;21.50;100681;;;;565084;250;24105;-84
2022/08/02 14:19:02;;;;;;;8.13;1.67;;;22.00;82.10;21.40;100686;;;;562714;251;24178;-86
2022/08/02 14:21:29;;;;;;;9.43;1.50;;;21.90;82.80;21.40;100684;;;;563872;251;24112;-85
2022/08/02 14:23:57;;;;;;;10.47;1.27;;;21.80;83.00;21.30;100691;;;;562776;251;24113;-85
2022/08/02 14:26:25;;;;;;;4.83;1.60;;;21.80;83.20;21.20;100682;;;;563990;251;24149;-84
2022/08/02 14:28:56;;;;;;;3.50;1.77;;;21.70;83.40;21.20;100689;;;;565189;251;24103;-83
2022/08/02 14:31:25;;;;;;;3.87;1.57;;;21.60;83.80;21.20;100688;;;;564427;250;24173;-84
2022/08/02 14:33:49;;;;;;;12.87;1.93;;;21.60;84.50;21.10;100678;;;;563330;250;23161;-84
2022/08/02 14:36:18;;;;;;;8.77;2.10;;;21.50;85.70;21.10;100680;;;;562434;249;25189;-84
2022/08/02 14:38:46;;;;;;;7.77;1.67;;;21.50;84.90;21.10;100682;;;;566051;250;23144;-85
2022/08/02 14:41:13;;;;;;;11.90;1.80;;;21.50;86.30;21.00;100674;;;;574262;250;24139;-83
2022/08/02 14:46:31;;;;;;;8.47;1.80;;;21.30;86.20;20.80;100666;;;;565512;251;23252;-83
2022/08/02 14:49:01;;;;;;;8.40;1.80;;;21.20;86.60;20.70;100675;;;;564995;250;24112;-88
2022/08/02 14:51:25;;;;;;;8.00;2.30;;;21.20;86.60;20.60;100685;;;;572765;250;23139;-84
2022/08/02 14:53:53;;;;;;;7.93;2.50;;;21.10;86.50;20.60;100684;;;;562770;251;24193;-85
2022/08/02 14:56:24;;;;;;;4.83;1.53;;;21.10;86.50;20.60;100676;;;;562285;251;24114;-84
2022/08/02 14:58:52;;;;;;;5.43;1.57;;;21.10;87.30;20.70;100678;;;;562270;251;24125;-83
2022/08/02 15:01:24;;;;;;;7.90;1.50;;;21.10;88.10;20.70;100677;;;;573309;250;24149;-85
2022/08/02 15:03:49;;;;;;;10.27;1.63;;;21.10;88.60;20.70;100670;;;;564314;251;24117;-85
2022/08/02 15:06:20;;;;;;;2.93;1.40;;;21.10;88.70;20.70;100669;;;;562460;251;23130;-84
2022/08/02 15:08:45;;;;;;;7.40;1.70;;;21.10;89.00;20.60;100674;;;;564280;250;24155;-84
2022/08/02 15:11:14;;;;;;;6.17;1.77;;;21.10;90.00;20.60;100672;;;;562355;251;24105;-84
2022/08/02 15:13:42;;;;;;;3.13;1.23;;;21.10;90.00;20.60;100672;;;;562089;251;23170;-83
2022/08/02 15:16:10;;;;;;;5.87;1.80;;;21.10;89.70;20.60;100678;;;;561997;251;23171;-83
2022/08/02 15:18:38;;;;;;;7.63;1.57;;;21.10;90.10;20.60;100669;;;;572774;250;24106;-85
2022/08/02 15:21:06;;;;;;;6.73;1.30;;;21.10;90.20;20.60;100680;;;;563800;251;23134;-83
2022/08/02 15:23:34;;;;;;;8.53;3.20;;;21.00;89.60;20.50;100679;;;;562547;251;23126;-84
2022/08/02 15:26:02;;;;;;;6.33;1.70;;;21.00;90.10;20.50;100676;;;;563764;251;24100;-84
2022/08/02 15:28:31;;;;;;;11.60;1.77;;;21.00;90.70;20.50;100681;;;;552870;259;24229;-85
2022/08/02 15:30:59;;;;;;;5.80;1.43;;;21.00;90.70;20.50;100683;;;;562565;251;24164;-84
2022/08/02 15:33:27;;;;;;;11.27;1.57;;;20.90;90.80;20.50;100673;;;;562359;251;23142;-84
2022/08/02 15:35:55;;;;;;;9.73;2.10;;;20.90;91.00;20.40;100677;;;;563412;251;24137;-84
2022/08/02 15:38:23;;;;;;;8.83;1.60;;;20.90;91.20;20.40;100684;;;;564745;251;24173;-84
2022/08/02 15:40:50;;;;;;;8.60;1.60;;;20.90;91.60;20.20;100666;;;;563650;251;24139;-83
2022/08/02 15:43:20;;;;;;;6.33;1.60;;;20.80;92.00;20.20;100659;;;;563379;251;23143;-85
2022/08/02 15:45:46;;;;;;;7.20;1.80;;;20.70;92.50;20.20;100665;;;;563509;251;24117;-83
2022/08/02 15:48:17;;;;;;;11.50;1.77;;;20.70;92.40;20.20;100666;;;;573652;248;23123;-85
2022/08/02 15:50:42;;;;;;;8.37;1.20;;;20.70;92.50;20.20;100677;;;;564945;250;24105;-85
2022/08/02 15:53:15;;;;;;;8.83;2.03;;;20.70;93.20;20.20;100670;;;;565599;250;24159;-85
2022/08/02 15:55:40;;;;;;;12.47;1.87;;;20.60;93.10;20.20;100687;;;;573431;250;24140;-84
2022/08/02 15:58:10;;;;;;;7.77;2.07;;;20.60;93.10;20.10;100674;;;;565376;250;24105;-85
2022/08/02 16:00:38;;;;;;;6.97;1.77;;;20.60;93.10;20.10;100677;;;;564839;250;24131;-83
2022/08/02 16:03:07;;;;;;;4.53;1.57;;;20.60;93.20;20.10;100673;;;;552990;259;24176;-84
2022/08/02 16:05:35;;;;;;;10.73;2.00;;;20.60;92.90;20.20;100672;;;;563900;251;24140;-85
2022/08/02 16:08:04;;;;;;;8.23;2.37;;;20.70;93.30;20.20;100666;;;;562683;251;24153;-84
2022/08/02 16:10:32;;;;;;;14.30;2.17;;;20.70;93.60;20.20;100669;;;;572925;250;24180;-84
2022/08/02 16:15:47;;;;;;;8.90;2.17;;;20.60;93.80;20.20;100670;;;;565002;251;24168;-83
2022/08/02 16:18:16;;;;;;;14.43;2.53;;;20.70;93.90;20.20;100666;;;;559331;251;35555;-84
2022/08/02 16:20:44;;;;;;;8.50;1.90;;;20.70;94.30;20.10;100665;;;;564102;251;24144;-83
2022/08/02 16:23:12;;;;;;;8.83;2.03;;;20.60;94.30;20.10;100660;;;;573558;250;23196;-84
2022/08/02 16:25:40;;;;;;;8.53;1.80;;;20.60;94.60;20.00;100674;;;;563136;251;24141;-83
2022/08/02 16:28:08;;;;;;;8.00;1.30;;;20.50;94.90;19.90;100665;;;;562832;251;23130;-84
2022/08/02 16:30:36;;;;;;;6.03;1.73;;;20.40;94.70;19.80;100672;;;;563761;251;24121;-84
2022/08/02 16:33:04;;;;;;;8.90;2.00;;;20.30;94.90;19.70;100671;;;;562342;251;24143;-83
2022/08/02 16:35:33;;;;;;;8.27;1.70;;;20.30;95.40;19.60;100679;;;;572743;250;24097;-85
2022/08/02 16:38:00;;;;;;;5.97;1.83;;;20.10;95.70;19.50;100669;;;;563222;250;24102;-84
2022/08/02 16:40:29;;;;;;;13.20;1.90;;;20.10;96.50;19.50;100669;;;;563326;251;24128;-84
2022/08/02 16:42:56;;;;;;;8.00;1.60;;;20.00;97.00;19.40;100671;;;;563962;250;24169;-85
2022/08/02 16:45:24;;;;;;;3.87;1.43;;;19.90;97.50;19.40;100668;;;;562184;251;24142;-85
2022/08/02 16:47:53;;;;;;;4.67;1.37;;;19.90;98.10;19.40;100675;;;;552663;260;24197;-84
2022/08/02 16:50:28;;;;;;;6.77;1.33;;;19.90;98.60;19.40;100682;;;;572254;251;24102;-84
2022/08/02 16:52:54;;;;;;;10.37;2.23;;;19.80;99.10;19.40;100674;;;;561993;250;24230;-86
2022/08/02 16:55:27;;;;;;;7.47;1.60;;;19.80;99.40;19.30;100681;;;;564097;250;24134;-83
2022/08/02 16:57:51;;;;;;;13.20;2.33;;;19.80;99.40;19.30;100675;;;;564053;251;24119;-86
2022/08/02 17:00:23;;;;;;;8.53;2.30;;;19.80;99.90;19.30;100678;;;;564189;250;24139;-87
2022/08/02 17:02:47;;;;;;;9.20;2.00;;;19.80;99.90;19.30;100674;;;;565509;250;24126;-83
2022/08/02 17:05:15;;;;;;;13.03;1.63;;;19.70;99.90;19.20;100685;;;;574249;250;24181;-84
2022/08/02 17:07:43;;;;;;;12.00;2.20;;;19.70;99.90;19.20;100676;;;;564191;250;24089;-83
2022/08/02 17:10:14;;;;;;;7.23;1.63;;;19.60;99.90;19.10;100679;;;;564574;250;24109;-85
2022/08/02 17:12:38;;;;;;;8.87;1.87;;;19.60;99.90;19.00;100678;;;;573017;250;24137;-84
2022/08/02 17:15:06;;;;;;;11.67;2.77;;;19.50;99.90;18.90;100681;;;;564356;250;24159;-83
2022/08/02 17:17:34;;;;;;;13.67;2.00;;;19.40;99.90;18.80;100682;;;;565034;250;24132;-83
2022/08/02 17:20:02;;;;;;;8.90;2.07;;;19.40;99.90;18.80;100680;;;;562647;251;24178;-85
2022/08/02 17:22:31;;;;;;;11.53;2.10;;;19.30;99.90;18.80;100683;;;;569513;250;23175;-86
2022/08/02 17:24:59;;;;;;;9.57;2.40;;;19.30;99.90;18.70;100680;;;;564071;250;24160;-85
2022/08/02 17:27:31;;;;;;;9.77;1.77;;;19.20;99.90;18.60;100681;;;;552807;260;24143;-85
2022/08/02 17:29:56;;;;;;;13.00;1.93;;;19.00;99.90;18.50;100679;;;;555046;255;25188;-84
2022/08/02 17:32:25;;;;;;;8.80;1.97;;;19.00;99.90;18.40;100688;;;;570343;248;24157;-84
2022/08/02 17:34:53;;;;;;;5.53;1.97;;;18.90;99.90;18.30;100682;;;;564854;251;24152;-86
2022/08/02 17:37:21;;;;;;;8.33;1.70;;;18.80;99.90;18.20;100688;;;;562329;251;24098;-84
2022/08/02 17:39:50;;;;;;;10.50;2.37;;;18.70;99.90;18.20;100676;;;;568225;250;35573;-87
2022/08/02 17:42:19;;;;;;;6.17;1.53;;;18.60;99.90;18.10;100681;;;;563109;251;24103;-86
2022/08/02 17:44:47;;;;;;;14.60;1.57;;;18.60;99.90;18.00;100680;;;;569244;250;24120;-85
2022/08/02 17:47:17;;;;;;;5.90;1.43;;;18.50;99.90;18.00;100677;;;;563877;250;24134;-86
2022/08/02 17:49:45;;;;;;;7.83;1.83;;;18.50;99.90;17.90;100675;;;;573145;250;24170;-85
2022/08/02 17:52:13;;;;;;;6.87;1.57;;;18.40;99.90;17.80;100675;;;;563538;251;24105;-86
2022/08/02 17:54:42;;;;;;;8.07;1.67;;;18.20;99.90;17.70;100675;;;;562323;251;24113;-85
2022/08/02 17:57:14;;;;;;;7.47;1.40;;;18.10;99.90;17.60;100681;;;;562935;251;24187;-84
2022/08/02 17:59:38;;;;;;;4.47;1.60;;;18.10;99.90;17.50;100684;;;;564404;251;24187;-84
2022/08/02 18:02:06;;;;;;;4.87;1.60;;;18.10;99.90;17.50;100685;;;;563280;251;24138;-85
2022/08/02 18:04:36;;;;;;;5.90;1.53;;;18.00;99.90;17.40;100689;;;;563410;251;24106;-85
2022/08/02 18:07:02;;;;;;;11.33;1.77;;;17.90;99.90;17.40;100692;;;;572257;250;24108;-84
2022/08/02 18:09:31;;;;;;;4.93;1.30;;;17.90;99.90;17.30;100694;;;;572589;250;24151;-85
2022/08/02 18:11:59;;;;;;;10.50;1.60;;;17.80;99.90;17.30;100684;;;;573744;248;24136;-83
2022/08/02 18:14:27;;;;;;;6.30;1.95;;;17.80;99.90;17.30;100689;;;;568852;250;35539;-82
2022/08/02 18:16:55;;;;;;;7.30;1.57;;;17.80;99.90;17.20;100688;;;;574059;250;24096;-84
2022/08/02 18:19:22;;;;;;;8.97;1.93;;;17.70;99.90;17.10;100680;;;;553217;258;24178;-84
2022/08/02 18:21:50;;;;;;;5.93;1.87;;;17.70;99.90;17.00;100691;;;;563357;251;24092;-86
2022/08/02 18:24:18;;;;;;;3.63;1.73;;;17.60;99.90;16.90;100690;;;;565613;251;24185;-85
2022/08/02 18:26:46;;;;;;;4.70;1.07;;;17.50;99.90;16.90;100696;;;;565858;251;24191;-86
2022/08/02 18:29:18;;;;;;;5.93;1.20;;;17.40;99.90;16.80;100696;;;;563369;251;24173;-85
2022/08/02 18:31:43;;;;;;;5.73;2.87;;;17.30;99.90;16.70;100699;;;;565013;251;24138;-85
2022/08/02 18:34:12;;;;;;;7.40;1.40;;;17.20;99.90;16.60;100699;;;;563426;251;24120;-84
2022/08/02 18:36:40;;;;;;;6.97;1.40;;;17.10;99.90;16.60;100701;;;;563315;251;24120;-86
2022/08/02 18:39:08;;;;;;;4.03;1.17;;;17.10;99.90;16.50;100708;;;;565454;251;24175;-84
2022/08/02 18:41:36;;;;;;;5.03;1.10;;;17.00;99.90;16.50;100702;;;;552928;259;26363;-85
2022/08/02 18:44:06;;;;;;;7.90;1.43;;;17.00;99.90;16.40;100705;;;;562717;255;24195;-86
2022/08/02 18:46:39;;;;;;;4.43;1.10;;;17.00;99.90;16.40;100702;;;;571056;251;24122;-85
2022/08/02 18:49:03;;;;;;;1.90;1.13;;;16.90;99.90;16.30;100709;;;;544192;260;24274;-85
2022/08/02 18:51:31;;;;;;;4.30;1.60;;;16.90;99.90;16.30;100702;;;;565290;250;24171;-85
2022/08/02 18:54:02;;;;;;;5.10;1.87;;;16.80;99.90;16.20;100708;;;;565172;250;24134;-85
2022/08/02 18:56:27;;;;;;;3.83;1.20;;;16.70;99.90;16.20;100711;;;;573734;247;24140;-84
2022/08/02 18:58:58;;;;;;;8.70;1.87;;;16.70;99.90;16.10;100706;;;;553237;258;24287;-85
2022/08/02 19:01:28;;;;;;;2.77;1.30;;;16.70;99.90;16.10;100714;;;;572771;250;24118;-85
2022/08/02 19:03:53;;;;;;;1.70;0.87;;;16.60;99.90;16.10;100719;;;;564884;250;24159;-82
2022/08/02 19:06:25;;;;;;;9.80;1.60;;;16.60;99.90;16.10;100704;;;;570715;251;24254;-83
2022/08/02 19:08:53;;;;;;;4.10;1.70;;;16.60;99.90;16.00;100714;;;;573924;250;25174;-83
2022/08/02 19:11:21;;;;;;;6.47;1.40;;;16.60;99.90;16.00;100713;;;;574014;250;24122;-85
2022/08/02 19:13:51;;;;;;;4.70;1.70;;;16.50;99.90;15.90;100712;;;;573867;247;24118;-85
2022/08/02 19:16:22;;;;;;;4.73;1.37;;;16.50;99.90;15.90;100713;;;;574030;250;24111;-85
2022/08/02 19:18:51;;;;;;;3.70;1.70;;;16.40;99.90;15.90;100714;;;;569147;250;35444;-84
2022/08/02 19:21:20;;;;;;;4.93;1.67;;;16.40;99.90;15.90;100715;;;;566137;250;24100;-84
2022/08/02 19:23:49;;;;;;;8.50;1.43;;;16.40;99.90;15.80;100715;;;;566838;249;24130;-84
2022/08/02 19:26:21;;;;;;;6.03;1.63;;;16.40;99.90;15.80;100723;;;;546857;258;24222;-85
2022/08/02 19:28:47;;;;;;;4.30;1.80;;;16.40;99.90;15.70;100718;;;;555152;255;24148;-85
2022/08/02 19:31:16;;;;;;;5.63;2.00;;;16.30;99.90;15.70;100710;;;;575143;247;24130;-85
2022/08/02 19:33:51;;;;;;;5.03;1.63;;;16.30;99.90;15.70;100715;;;;565893;250;24129;-85
2022/08/02 19:36:16;;;;;;;5.53;1.70;;;16.20;99.90;15.60;100715;;;;565703;251;24135;-85
2022/08/02 19:38:45;;;;;;;5.40;1.80;;;16.20;99.90;15.60;100722;;;;563633;251;24132;-84
2022/08/02 19:41:14;;;;;;;4.60;1.67;;;16.20;99.90;15.60;100725;;;;562986;251;24121;-85
2022/08/02 19:43:44;;;;;;;6.53;1.77;;;16.10;99.90;15.50;100715;;;;565530;251;24182;-84
2022/08/02 19:46:09;;;;;;;7.10;1.90;;;16.10;99.90;15.50;100723;;;;565086;250;24113;-84
2022/08/02 19:48:41;;;;;;;2.07;1.87;;;16.00;99.90;15.40;100721;;;;574201;247;24245;-83
2022/08/02 19:51:05;;;;;;;4.90;2.30;;;15.90;99.90;15.30;100716;;;;565605;251;24107;-84
2022/08/02 19:53:36;;;;;;;5.40;2.33;;;15.90;99.90;15.20;100720;;;;565498;251;24094;-85
2022/08/02 19:56:03;;;;;;;7.03;1.93;;;15.80;99.90;15.20;100716;;;;564504;250;24124;-85
2022/08/02 19:58:36;;;;;;;6.93;2.40;;;15.80;99.90;15.20;100724;;;;574095;250;24157;-83
2022/08/02 20:01:01;;;;;;;4.93;1.63;;;15.80;99.90;15.20;100718;;;;565015;251;24122;-85
2022/08/02 20:03:37;;;;;;;7.27;1.80;;;15.70;99.90;15.20;100717;;;;573598;250;24111;-85
2022/08/02 20:06:07;;;;;;;6.93;1.97;;;15.70;99.90;15.20;100724;;;;563107;251;24140;-85
2022/08/02 20:08:35;;;;;;;6.10;2.93;;;15.70;99.90;15.10;100721;;;;564162;250;24123;-85
2022/08/02 20:10:59;;;;;;;3.10;2.73;;;15.70;99.90;15.10;100725;;;;573238;248;25210;-83
2022/08/02 20:13:36;;;;;;;6.57;2.40;;;15.70;99.90;15.10;100726;;;;573608;250;24163;-86
2022/08/02 20:16:06;;;;;;;7.10;2.73;;;15.70;99.90;15.00;100727;;;;564323;250;24131;-84
2022/08/02 20:18:34;;;;;;;8.97;2.53;;;15.60;99.90;14.90;100722;;;;565044;250;24136;-83
2022/08/02 20:21:06;;;;;;;4.30;2.87;;;15.50;99.90;14.80;100726;;;;572739;251;24132;-84
2022/08/02 20:23:36;;;;;;;11.37;3.80;;;15.40;99.90;14.80;100726;;;;574250;250;24122;-85
2022/08/02 20:26:01;;;;;;;5.33;2.33;;;15.40;99.90;14.70;100716;;;;563086;251;24135;-83
2022/08/02 20:28:30;;;;;;;6.83;3.17;;;15.30;99.90;14.60;100721;;;;565760;250;24176;-83
2022/08/02 20:31:01;;;;;;;5.57;2.07;;;15.30;99.90;14.60;100722;;;;564606;250;24121;-84
2022/08/02 20:33:26;;;;;;;6.60;4.33;;;15.20;99.90;14.60;100716;;;;564914;251;24164;-84
2022/08/02 20:35:58;;;;;;;3.33;2.47;;;15.10;99.90;14.60;100718;;;;565471;250;24169;-84
2022/08/02 20:38:24;;;;;;;3.83;2.17;;;15.10;99.90;14.50;100720;;;;574619;250;25333;-84
2022/08/02 20:40:55;;;;;;;7.20;2.50;;;15.10;99.90;14.60;100717;;;;563490;250;24115;-84
2022/08/02 20:43:23;;;;;;;5.57;2.50;;;15.10;99.90;14.50;100716;;;;565936;250;24294;-85
2022/08/02 20:45:57;;;;;;;4.70;2.43;;;15.10;99.90;14.50;100712;;;;571768;251;24157;-83
2022/08/02 20:48:28;;;;;;;8.83;2.60;;;15.10;99.90;14.50;100704;;;;565226;250;23137;-84
2022/08/02 20:50:55;;;;;;;8.30;3.13;;;15.10;99.90;14.50;100707;;;;564177;251;24180;-84
2022/08/02 20:53:27;;;;;;;5.97;2.07;;;15.10;99.90;14.40;100706;;;;574257;250;24170;-83
2022/08/02 20:55:55;;;;;;;4.97;2.10;;;15.00;99.90;14.50;100713;;;;564955;251;24153;-84
2022/08/02 20:58:20;;;;;;;6.20;2.00;;;15.10;99.90;14.50;100702;;;;563958;250;24179;-85
2022/08/02 21:00:52;;;;;;;9.03;2.57;;;15.10;99.90;14.50;100702;;;;573987;250;24167;-83
2022/08/02 21:03:23;;;;;;;7.30;2.40;;;15.10;99.90;14.50;100696;;;;563027;251;24138;-85
2022/08/02 21:05:51;;;;;;;2.33;1.70;;;15.10;99.90;14.50;100697;;;;564895;251;26321;-83
2022/08/02 21:08:19;;;;;;;5.37;2.33;;;15.10;99.90;14.50;100696;;;;564602;250;24202;-84
2022/08/02 21:10:54;;;;;;;5.90;1.93;;;15.10;99.90;14.50;100687;;;;564710;251;24160;-84
2022/08/02 21:13:22;;;;;;;3.70;2.37;;;15.10;99.90;14.50;100689;;;;564680;251;24317;-85
2022/08/02 21:15:52;;;;;;;5.47;2.30;;;15.10;99.90;14.50;100686;;;;573739;250;24119;-85
2022/08/02 21:18:16;;;;;;;8.50;2.13;;;15.10;99.90;14.50;100681;;;;564583;251;24116;-84
2022/08/02 21:20:45;;;;;;;3.57;2.10;;;15.10;99.90;14.50;100688;;;;574442;250;24110;-84
2022/08/02 21:23:16;;;;;;;3.70;1.53;;;15.10;99.90;14.50;100689;;;;565440;251;25163;-84
2022/08/02 21:25:50;;;;;;;6.40;1.97;;;15.10;99.90;14.50;100683;;;;573767;250;24168;-84
2022/08/02 21:28:14;;;;;;;5.67;2.10;;;15.10;99.90;14.50;100678;;;;565027;251;24117;-84
2022/08/02 21:30:53;;;;;;;6.43;1.90;;;15.10;99.90;14.50;100680;;;;563058;246;24107;-83
2022/08/02 21:33:21;;;;;;;5.20;2.03;;;15.10;99.90;14.40;100674;;;;565052;251;24111;-84
2022/08/02 21:35:52;;;;;;;6.33;2.23;;;15.00;99.90;14.40;100676;;;;564786;251;24166;-84
2022/08/02 21:38:18;;;;;;;4.17;1.83;;;15.00;99.90;14.30;100680;;;;565121;251;24113;-84
2022/08/02 21:40:52;;;;;;;5.47;1.77;;;15.00;99.90;14.30;100689;;;;573792;250;24136;-84
2022/08/02 21:43:18;;;;;;;6.33;1.60;;;14.90;99.90;14.30;100685;;;;573688;250;24138;-86
2022/08/02 21:45:45;;;;;;;5.00;2.07;;;14.90;99.90;14.30;100686;;;;574289;249;24189;-85
2022/08/02 21:48:16;;;;;;;2.40;1.57;;;14.90;99.90;14.30;100681;;;;574950;249;24121;-85
2022/08/02 21:50:48;;;;;;;4.83;1.60;;;14.90;99.90;14.30;100680;;;;566735;249;24111;-84
2022/08/02 21:53:18;;;;;;;2.33;1.53;;;14.90;99.90;14.30;100681;;;;573774;249;24191;-84
2022/08/02 21:55:44;;;;;;;4.77;2.20;;;14.90;99.90;14.20;100685;;;;565735;251;24140;-85
2022/08/02 21:58:18;;;;;;;6.17;2.10;;;14.80;99.90;14.20;100692;;;;565485;250;24164;-84
2022/08/02 22:00:48;;;;;;;5.73;1.93;;;14.80;99.90;14.10;100691;;;;574856;250;24166;-85
2022/08/02 22:03:15;;;;;;;7.07;1.87;;;14.80;99.90;14.00;100685;;;;574166;247;24118;-85
2022/08/02 22:05:43;;;;;;;7.30;1.60;;;14.70;99.90;14.00;100686;;;;570454;250;24136;-85
2022/08/02 22:08:12;;;;;;;5.73;2.40;;;14.70;99.90;14.00;100680;;;;574286;250;24105;-86
2022/08/02 22:13:26;;;;;;;9.57;2.27;;;14.60;99.90;14.00;100681;;;;574358;250;24125;-82
2022/08/02 22:15:57;;;;;;;7.37;1.80;;;14.60;99.90;13.90;100680;;;;571444;250;24227;-82
2022/08/02 22:18:25;;;;;;;6.70;1.57;;;14.60;99.90;13.90;100681;;;;565224;248;24138;-83
2022/08/02 22:20:50;;;;;;;5.53;1.73;;;14.60;99.90;13.90;100680;;;;565606;250;24203;-84
2022/08/02 22:23:18;;;;;;;4.63;2.20;;;14.60;99.90;13.90;100687;;;;564495;251;25173;-83
2022/08/02 22:25:48;;;;;;;5.27;2.00;;;14.60;99.90;13.90;100688;;;;574127;250;24112;-84
2022/08/02 22:28:20;;;;;;;7.70;1.93;;;14.50;99.90;13.90;100689;;;;572210;250;24120;-84
2022/08/02 22:30:51;;;;;;;5.27;1.80;;;14.50;99.90;13.90;100691;;;;563157;251;24091;-84
2022/08/02 22:36:05;;;;;;;2.33;1.73;;;14.50;99.90;13.80;100690;;;;564980;250;24120;-83
2022/08/02 22:38:34;;;;;;;4.77;1.57;;;14.50;99.90;13.80;100689;;;;565505;251;24151;-84
2022/08/02 22:40:58;;;;;;;4.77;2.17;;;14.40;99.90;13.80;100690;;;;565543;251;24121;-84
2022/08/02 22:43:29;;;;;;;2.57;1.70;;;14.40;99.90;13.70;100690;;;;552812;257;24174;-85
2022/08/02 22:45:55;;;;;;;4.57;1.70;;;14.40;99.90;13.70;100692;;;;554848;255;24139;-85
2022/08/02 22:48:24;;;;;;;5.23;2.00;;;14.40;99.90;13.70;100695;;;;560208;254;24174;-84
2022/08/02 22:50:58;;;;;;;2.00;1.67;;;14.30;99.90;13.70;100697;;;;573780;250;24118;-84
2022/08/02 22:53:22;;;;;;;5.90;1.90;;;14.30;99.90;13.60;100688;;;;565537;250;24132;-85
2022/08/02 22:55:59;;;;;;;12.33;2.10;;;14.30;99.90;13.60;100691;;;;563806;251;24137;-84
2022/08/02 22:58:24;;;;;;;4.90;1.80;;;14.30;99.90;13.60;100694;;;;574151;248;24119;-83
2022/08/02 23:00:53;;;;;;;5.60;2.30;;;14.20;99.90;13.60;100689;;;;565347;250;24113;-84
2022/08/02 23:03:21;;;;;;;3.53;1.80;;;14.20;99.90;13.60;100692;;;;570645;250;24155;-84
2022/08/02 23:05:52;;;;;;;4.90;2.27;;;14.20;99.90;13.60;100695;;;;566150;250;24158;-86
2022/08/02 23:08:19;;;;;;;2.80;1.30;;;14.20;99.90;13.50;100695;;;;565245;251;24146;-86
2022/08/02 23:10:46;;;;;;;6.57;1.60;;;14.20;99.90;13.50;100688;;;;565173;250;24171;-84
2022/08/02 23:13:20;;;;;;;8.67;2.57;;;14.10;99.90;13.50;100699;;;;565777;250;24144;-84
2022/08/02 23:21:19;;;;;;;4.43;1.80;;;14.10;99.90;13.50;100694;;;;564395;250;24195;-85
2022/08/02 23:23:48;;;;;;;4.60;1.70;;;14.10;99.90;13.50;100689;;;;565987;250;24100;-84
2022/08/02 23:26:19;;;;;;;3.90;1.97;;;14.10;99.90;13.50;100689;;;;574548;250;24104;-84
2022/08/02 23:28:44;;;;;;;4.03;1.87;;;14.10;99.90;13.50;100687;;;;565625;250;24211;-84
2022/08/02 23:31:33;;;;;;;3.13;1.80;;;14.10;99.90;13.50;100684;;;;564724;251;24158;-84
2022/08/02 23:34:05;;;;;;;7.63;2.20;;;14.10;99.90;13.50;100690;;;;573848;250;24130;-84
2022/08/02 23:36:33;;;;;;;5.03;2.40;;;14.10;99.90;13.50;100686;;;;565434;251;24190;-84
2022/08/02 23:39:02;;;;;;;8.50;2.07;;;14.10;99.90;13.60;100680;;;;564984;250;24222;-84
2022/08/02 23:41:30;;;;;;;4.43;2.23;;;14.10;99.90;13.60;100676;;;;565512;251;24158;-82
2022/08/02 23:44:00;;;;;;;6.03;1.90;;;14.20;99.90;13.60;100673;;;;565290;251;24145;-84
2022/08/02 23:46:25;;;;;;;4.87;2.00;;;14.20;99.90;13.60;100666;;;;565105;250;24114;-85
2022/08/02 23:48:53;;;;;;;8.93;1.97;;;14.20;99.90;13.60;100673;;;;563050;251;24141;-83
2022/08/02 23:51:21;;;;;;;5.57;1.73;;;14.20;99.90;13.70;100677;;;;564306;251;24136;-83
2022/08/02 23:53:49;;;;;;;4.07;2.00;;;14.30;99.90;13.60;100667;;;;573766;251;24128;-84
2022/08/02 23:56:17;;;;;;;5.03;1.90;;;14.30;99.90;13.70;100682;;;;564441;250;24163;-85
2022/08/02 23:58:46;;;;;;;3.03;1.70;;;14.30;99.90;13.70;100679;;;;562386;255;24229;-84
